sensor_id;sensor_type;location;lat;lon;timestamp;temperature;humidity
26743;DHT22;14341;51.256;22.478;2023-04-01T00:00:19;8.30;99.90
26743;DHT22;14341;51.256;22.478;2023-04-01T00:03:24;8.30;99.90
26743;DHT22;14341;51.256;22.478;2023-04-01T00:06:28;8.20;99.90
26743;DHT22;14341;51.256;22.478;2023-04-01T00:09:33;8.20;99.90
26743;DHT22;14341;51.256;22.478;2023-04-01T00:12:37;8.20;99.90
26743;DHT22;14341;51.256;22.478;2023-04-01T00:15:41;8.10;99.90
26743;DHT22;14341;51.256;22.478;2023-04-01T00:18:45;8.00;99.90
26743;DHT22;14341;51.256;22.478;2023-04-01T00:21:49;8.00;99.90
26743;DHT22;14341;51.256;22.478;2023-04-01T00:24:55;7.80;99.90
26743;DHT22;14341;51.256;22.478;2023-04-01T00:27:58;7.80;99.90
26743;DHT22;14341;51.256;22.478;2023-04-01T00:31:05;7.70;99.90
26743;DHT22;14341;51.256;22.478;2023-04-01T00:34:09;7.70;99.90
26743;DHT22;14341;51.256;22.478;2023-04-01T00:37:12;7.60;99.90
26743;DHT22;14341;51.256;22.478;2023-04-01T00:40:25;7.40;99.90
26743;DHT22;14341;51.256;22.478;2023-04-01T00:43:29;7.60;99.90
26743;DHT22;14341;51.256;22.478;2023-04-01T00:46:32;7.60;99.90
26743;DHT22;14341;51.256;22.478;2023-04-01T00:49:39;7.60;99.90
26743;DHT22;14341;51.256;22.478;2023-04-01T00:52:43;7.60;99.90
26743;DHT22;14341;51.256;22.478;2023-04-01T00:55:51;7.60;99.90
26743;DHT22;14341;51.256;22.478;2023-04-01T00:58:58;7.70;99.90
26743;DHT22;14341;51.256;22.478;2023-04-01T01:02:05;7.80;99.90
26743;DHT22;14341;51.256;22.478;2023-04-01T01:05:12;7.80;99.90
26743;DHT22;14341;51.256;22.478;2023-04-01T01:08:23;7.80;99.90
26743;DHT22;14341;51.256;22.478;2023-04-01T01:11:37;7.80;99.90
26743;DHT22;14341;51.256;22.478;2023-04-01T01:14:59;7.80;99.90
26743;DHT22;14341;51.256;22.478;2023-04-01T01:18:10;7.80;99.90
26743;DHT22;14341;51.256;22.478;2023-04-01T01:21:49;7.80;99.90
26743;DHT22;14341;51.256;22.478;2023-04-01T01:25:09;7.80;99.90
26743;DHT22;14341;51.256;22.478;2023-04-01T01:28:30;7.80;99.90
26743;DHT22;14341;51.256;22.478;2023-04-01T01:31:45;7.80;99.90
26743;DHT22;14341;51.256;22.478;2023-04-01T01:34:55;7.70;99.90
26743;DHT22;14341;51.256;22.478;2023-04-01T01:38:03;7.70;99.90
26743;DHT22;14341;51.256;22.478;2023-04-01T01:41:09;7.70;99.90
26743;DHT22;14341;51.256;22.478;2023-04-01T01:44:14;7.70;99.90
26743;DHT22;14341;51.256;22.478;2023-04-01T01:47:19;7.70;99.90
26743;DHT22;14341;51.256;22.478;2023-04-01T01:50:23;7.80;99.90
26743;DHT22;14341;51.256;22.478;2023-04-01T01:53:29;7.80;99.90
26743;DHT22;14341;51.256;22.478;2023-04-01T01:56:34;7.70;99.90
26743;DHT22;14341;51.256;22.478;2023-04-01T01:59:39;7.70;99.90
26743;DHT22;14341;51.256;22.478;2023-04-01T02:02:46;7.70;99.90
26743;DHT22;14341;51.256;22.478;2023-04-01T02:05:52;7.70;99.90
26743;DHT22;14341;51.256;22.478;2023-04-01T02:09:02;7.70;99.90
26743;DHT22;14341;51.256;22.478;2023-04-01T02:12:08;7.80;99.90
26743;DHT22;14341;51.256;22.478;2023-04-01T02:15:15;7.80;99.90
26743;DHT22;14341;51.256;22.478;2023-04-01T02:18:20;7.80;99.90
26743;DHT22;14341;51.256;22.478;2023-04-01T02:21:26;7.90;99.90
26743;DHT22;14341;51.256;22.478;2023-04-01T02:24:33;7.90;99.90
26743;DHT22;14341;51.256;22.478;2023-04-01T02:27:39;7.90;99.90
26743;DHT22;14341;51.256;22.478;2023-04-01T02:30:43;7.90;99.90
26743;DHT22;14341;51.256;22.478;2023-04-01T02:33:47;7.90;99.90
26743;DHT22;14341;51.256;22.478;2023-04-01T02:36:51;7.90;99.90
26743;DHT22;14341;51.256;22.478;2023-04-01T02:39:59;7.90;99.90
26743;DHT22;14341;51.256;22.478;2023-04-01T02:43:03;7.90;99.90
26743;DHT22;14341;51.256;22.478;2023-04-01T02:46:06;7.90;99.90
26743;DHT22;14341;51.256;22.478;2023-04-01T02:49:11;8.00;99.90
26743;DHT22;14341;51.256;22.478;2023-04-01T02:52:14;7.90;99.90
26743;DHT22;14341;51.256;22.478;2023-04-01T02:55:19;8.00;99.90
26743;DHT22;14341;51.256;22.478;2023-04-01T02:58:22;7.90;99.90
26743;DHT22;14341;51.256;22.478;2023-04-01T03:01:26;7.90;99.90
26743;DHT22;14341;51.256;22.478;2023-04-01T03:04:29;7.90;99.90
26743;DHT22;14341;51.256;22.478;2023-04-01T03:07:33;7.90;99.90
26743;DHT22;14341;51.256;22.478;2023-04-01T03:10:38;7.80;99.90
26743;DHT22;14341;51.256;22.478;2023-04-01T03:13:41;7.80;99.90
26743;DHT22;14341;51.256;22.478;2023-04-01T03:16:45;7.80;99.90
26743;DHT22;14341;51.256;22.478;2023-04-01T03:19:48;7.80;99.90
26743;DHT22;14341;51.256;22.478;2023-04-01T03:22:51;7.70;99.90
26743;DHT22;14341;51.256;22.478;2023-04-01T03:25:56;7.70;99.90
26743;DHT22;14341;51.256;22.478;2023-04-01T03:28:59;7.60;99.90
26743;DHT22;14341;51.256;22.478;2023-04-01T03:32:03;7.70;99.90
26743;DHT22;14341;51.256;22.478;2023-04-01T03:35:07;7.60;99.90
26743;DHT22;14341;51.256;22.478;2023-04-01T03:38:11;7.60;99.90
26743;DHT22;14341;51.256;22.478;2023-04-01T03:41:17;7.50;99.90
26743;DHT22;14341;51.256;22.478;2023-04-01T03:44:20;7.50;99.90
26743;DHT22;14341;51.256;22.478;2023-04-01T03:47:27;7.50;99.90
26743;DHT22;14341;51.256;22.478;2023-04-01T03:50:30;7.40;99.90
26743;DHT22;14341;51.256;22.478;2023-04-01T03:53:34;7.30;99.90
26743;DHT22;14341;51.256;22.478;2023-04-01T03:56:40;7.30;99.90
26743;DHT22;14341;51.256;22.478;2023-04-01T03:59:44;7.30;99.90
26743;DHT22;14341;51.256;22.478;2023-04-01T04:02:48;7.30;99.90
26743;DHT22;14341;51.256;22.478;2023-04-01T04:05:56;7.40;99.90
26743;DHT22;14341;51.256;22.478;2023-04-01T04:08:59;7.40;99.90
26743;DHT22;14341;51.256;22.478;2023-04-01T04:12:06;7.40;99.90
26743;DHT22;14341;51.256;22.478;2023-04-01T04:15:10;7.50;99.90
26743;DHT22;14341;51.256;22.478;2023-04-01T04:18:13;7.50;99.90
26743;DHT22;14341;51.256;22.478;2023-04-01T04:21:17;7.60;99.90
26743;DHT22;14341;51.256;22.478;2023-04-01T04:24:20;7.60;99.90
26743;DHT22;14341;51.256;22.478;2023-04-01T04:27:45;7.60;99.90
26743;DHT22;14341;51.256;22.478;2023-04-01T04:30:49;7.60;99.90
26743;DHT22;14341;51.256;22.478;2023-04-01T04:33:53;7.70;99.90
26743;DHT22;14341;51.256;22.478;2023-04-01T04:36:56;7.70;99.90
26743;DHT22;14341;51.256;22.478;2023-04-01T04:40:05;7.80;99.90
26743;DHT22;14341;51.256;22.478;2023-04-01T04:43:13;7.80;99.90
26743;DHT22;14341;51.256;22.478;2023-04-01T04:46:17;7.80;99.90
26743;DHT22;14341;51.256;22.478;2023-04-01T04:49:22;7.80;99.90
26743;DHT22;14341;51.256;22.478;2023-04-01T04:52:25;7.80;99.90
26743;DHT22;14341;51.256;22.478;2023-04-01T04:55:28;7.90;99.90
26743;DHT22;14341;51.256;22.478;2023-04-01T04:58:54;7.90;99.90
26743;DHT22;14341;51.256;22.478;2023-04-01T05:02:01;8.00;99.90
26743;DHT22;14341;51.256;22.478;2023-04-01T05:05:05;8.10;99.90
26743;DHT22;14341;51.256;22.478;2023-04-01T05:08:09;8.10;99.90
26743;DHT22;14341;51.256;22.478;2023-04-01T05:11:14;8.20;99.90
26743;DHT22;14341;51.256;22.478;2023-04-01T05:14:19;8.30;99.90
26743;DHT22;14341;51.256;22.478;2023-04-01T05:17:34;8.40;99.90
26743;DHT22;14341;51.256;22.478;2023-04-01T05:20:38;8.40;99.90
26743;DHT22;14341;51.256;22.478;2023-04-01T05:23:44;8.50;99.90
26743;DHT22;14341;51.256;22.478;2023-04-01T05:26:49;8.60;99.90
26743;DHT22;14341;51.256;22.478;2023-04-01T05:29:54;8.60;99.90
26743;DHT22;14341;51.256;22.478;2023-04-01T05:33:14;8.60;99.90
26743;DHT22;14341;51.256;22.478;2023-04-01T05:36:19;8.70;99.90
26743;DHT22;14341;51.256;22.478;2023-04-01T05:39:24;8.60;99.90
26743;DHT22;14341;51.256;22.478;2023-04-01T05:42:28;8.70;99.90
26743;DHT22;14341;51.256;22.478;2023-04-01T05:45:34;8.70;99.90
26743;DHT22;14341;51.256;22.478;2023-04-01T05:48:50;8.80;99.90
26743;DHT22;14341;51.256;22.478;2023-04-01T05:51:54;8.90;99.90
26743;DHT22;14341;51.256;22.478;2023-04-01T05:54:58;8.90;99.90
26743;DHT22;14341;51.256;22.478;2023-04-01T05:58:05;9.00;99.90
26743;DHT22;14341;51.256;22.478;2023-04-01T06:01:13;9.00;99.90
26743;DHT22;14341;51.256;22.478;2023-04-01T06:04:22;9.00;99.90
26743;DHT22;14341;51.256;22.478;2023-04-01T06:07:25;9.00;99.90
26743;DHT22;14341;51.256;22.478;2023-04-01T06:10:38;9.00;99.90
26743;DHT22;14341;51.256;22.478;2023-04-01T06:17:26;8.90;99.90
26743;DHT22;14341;51.256;22.478;2023-04-01T06:20:39;8.90;99.90
26743;DHT22;14341;51.256;22.478;2023-04-01T06:23:54;8.70;99.90
26743;DHT22;14341;51.256;22.478;2023-04-01T06:27:07;8.60;99.90
26743;DHT22;14341;51.256;22.478;2023-04-01T06:30:33;8.60;99.90
26743;DHT22;14341;51.256;22.478;2023-04-01T06:33:52;8.60;99.90
26743;DHT22;14341;51.256;22.478;2023-04-01T06:37:20;8.50;99.90
26743;DHT22;14341;51.256;22.478;2023-04-01T06:40:47;8.60;99.90
26743;DHT22;14341;51.256;22.478;2023-04-01T06:43:59;8.70;99.90
26743;DHT22;14341;51.256;22.478;2023-04-01T06:47:46;8.90;99.90
26743;DHT22;14341;51.256;22.478;2023-04-01T06:51:21;9.20;99.90
26743;DHT22;14341;51.256;22.478;2023-04-01T06:54:49;9.40;99.90
26743;DHT22;14341;51.256;22.478;2023-04-01T06:58:21;9.80;99.90
26743;DHT22;14341;51.256;22.478;2023-04-01T07:01:29;10.00;99.90
26743;DHT22;14341;51.256;22.478;2023-04-01T07:04:40;9.90;99.90
26743;DHT22;14341;51.256;22.478;2023-04-01T07:07:48;9.80;99.90
26743;DHT22;14341;51.256;22.478;2023-04-01T07:10:55;9.60;99.90
26743;DHT22;14341;51.256;22.478;2023-04-01T07:14:22;9.60;99.90
26743;DHT22;14341;51.256;22.478;2023-04-01T07:17:30;9.60;99.90
26743;DHT22;14341;51.256;22.478;2023-04-01T07:20:37;9.70;99.90
26743;DHT22;14341;51.256;22.478;2023-04-01T07:23:47;9.80;99.90
26743;DHT22;14341;51.256;22.478;2023-04-01T07:27:16;10.00;99.90
26743;DHT22;14341;51.256;22.478;2023-04-01T07:30:22;10.30;99.90
26743;DHT22;14341;51.256;22.478;2023-04-01T07:33:35;10.60;99.90
26743;DHT22;14341;51.256;22.478;2023-04-01T07:36:46;10.70;99.90
26743;DHT22;14341;51.256;22.478;2023-04-01T07:39:57;10.80;99.90
26743;DHT22;14341;51.256;22.478;2023-04-01T07:43:21;11.00;99.90
26743;DHT22;14341;51.256;22.478;2023-04-01T07:46:53;11.10;99.90
26743;DHT22;14341;51.256;22.478;2023-04-01T07:50:05;11.40;99.90
26743;DHT22;14341;51.256;22.478;2023-04-01T07:53:20;11.50;99.90
26743;DHT22;14341;51.256;22.478;2023-04-01T07:56:33;11.70;99.90
26743;DHT22;14341;51.256;22.478;2023-04-01T07:59:39;11.80;99.90
26743;DHT22;14341;51.256;22.478;2023-04-01T08:03:09;11.70;99.90
26743;DHT22;14341;51.256;22.478;2023-04-01T08:06:20;12.00;99.90
26743;DHT22;14341;51.256;22.478;2023-04-01T08:09:29;12.40;99.90
26743;DHT22;14341;51.256;22.478;2023-04-01T08:13:03;12.40;99.90
26743;DHT22;14341;51.256;22.478;2023-04-01T08:16:43;12.40;99.90
26743;DHT22;14341;51.256;22.478;2023-04-01T08:20:08;12.40;99.90
26743;DHT22;14341;51.256;22.478;2023-04-01T08:23:16;12.30;99.90
26743;DHT22;14341;51.256;22.478;2023-04-01T08:26:27;12.00;99.90
26743;DHT22;14341;51.256;22.478;2023-04-01T08:29:39;12.00;99.90
26743;DHT22;14341;51.256;22.478;2023-04-01T08:32:47;12.20;99.90
26743;DHT22;14341;51.256;22.478;2023-04-01T08:35:58;11.90;99.90
26743;DHT22;14341;51.256;22.478;2023-04-01T08:39:06;12.00;99.90
26743;DHT22;14341;51.256;22.478;2023-04-01T08:46:12;12.20;99.90
26743;DHT22;14341;51.256;22.478;2023-04-01T08:49:44;12.10;99.90
26743;DHT22;14341;51.256;22.478;2023-04-01T08:53:15;12.20;99.90
26743;DHT22;14341;51.256;22.478;2023-04-01T08:56:26;12.30;99.90
26743;DHT22;14341;51.256;22.478;2023-04-01T08:59:57;12.40;99.90
26743;DHT22;14341;51.256;22.478;2023-04-01T09:03:41;12.50;99.90
26743;DHT22;14341;51.256;22.478;2023-04-01T09:06:56;12.50;99.90
26743;DHT22;14341;51.256;22.478;2023-04-01T09:10:24;13.00;99.90
26743;DHT22;14341;51.256;22.478;2023-04-01T09:17:51;13.20;91.10
26743;DHT22;14341;51.256;22.478;2023-04-01T09:21:22;13.30;78.80
26743;DHT22;14341;51.256;22.478;2023-04-01T09:24:43;13.40;55.30
26743;DHT22;14341;51.256;22.478;2023-04-01T09:27:56;13.70;33.70
26743;DHT22;14341;51.256;22.478;2023-04-01T09:31:39;13.70;19.40
26743;DHT22;14341;51.256;22.478;2023-04-01T09:35:10;13.60;17.70
26743;DHT22;14341;51.256;22.478;2023-04-01T09:38:44;14.00;20.10
26743;DHT22;14341;51.256;22.478;2023-04-01T09:46:23;13.70;1.00
26743;DHT22;14341;51.256;22.478;2023-04-01T09:50:00;13.60;1.00
26743;DHT22;14341;51.256;22.478;2023-04-01T09:53:59;13.90;4.20
26743;DHT22;14341;51.256;22.478;2023-04-01T09:57:41;13.80;7.90
26743;DHT22;14341;51.256;22.478;2023-04-01T10:02:09;14.00;32.40
26743;DHT22;14341;51.256;22.478;2023-04-01T10:10:06;13.70;25.10
26743;DHT22;14341;51.256;22.478;2023-04-01T10:13:51;13.70;50.30
26743;DHT22;14341;51.256;22.478;2023-04-01T10:27:59;13.50;56.40
26743;DHT22;14341;51.256;22.478;2023-04-01T10:39:52;14.20;1.00
26743;DHT22;14341;51.256;22.478;2023-04-01T10:43:55;14.00;1.00
26743;DHT22;14341;51.256;22.478;2023-04-01T10:47:26;14.10;6.70
26743;DHT22;14341;51.256;22.478;2023-04-01T10:51:01;14.40;5.90
26743;DHT22;14341;51.256;22.478;2023-04-01T10:54:18;14.40;1.00
26743;DHT22;14341;51.256;22.478;2023-04-01T11:02:01;14.10;18.50
26743;DHT22;14341;51.256;22.478;2023-04-01T11:05:52;14.10;17.40
26743;DHT22;14341;51.256;22.478;2023-04-01T11:16:44;13.80;21.40
26743;DHT22;14341;51.256;22.478;2023-04-01T11:31:26;14.10;1.00
26743;DHT22;14341;51.256;22.478;2023-04-01T11:34:48;13.70;1.00
26743;DHT22;14341;51.256;22.478;2023-04-01T11:37:59;13.70;5.50
26743;DHT22;14341;51.256;22.478;2023-04-01T11:41:40;13.70;4.30
26743;DHT22;14341;51.256;22.478;2023-04-01T11:45:18;13.70;4.10
26743;DHT22;14341;51.256;22.478;2023-04-01T11:48:38;13.50;27.60
26743;DHT22;14341;51.256;22.478;2023-04-01T11:52:05;13.60;36.00
26743;DHT22;14341;51.256;22.478;2023-04-01T11:55:27;13.50;33.90
26743;DHT22;14341;51.256;22.478;2023-04-01T12:02:25;13.20;95.70
26743;DHT22;14341;51.256;22.478;2023-04-01T12:05:43;13.20;94.30
26743;DHT22;14341;51.256;22.478;2023-04-01T12:08:57;13.00;83.10
26743;DHT22;14341;51.256;22.478;2023-04-01T12:12:15;12.50;74.20
26743;DHT22;14341;51.256;22.478;2023-04-01T12:15:26;11.80;75.80
26743;DHT22;14341;51.256;22.478;2023-04-01T12:18:37;11.50;99.90
26743;DHT22;14341;51.256;22.478;2023-04-01T12:21:45;11.50;99.90
26743;DHT22;14341;51.256;22.478;2023-04-01T12:25:00;10.80;99.90
26743;DHT22;14341;51.256;22.478;2023-04-01T12:28:15;10.50;99.90
26743;DHT22;14341;51.256;22.478;2023-04-01T12:31:31;10.40;99.90
26743;DHT22;14341;51.256;22.478;2023-04-01T12:34:52;10.70;99.90
26743;DHT22;14341;51.256;22.478;2023-04-01T12:38:13;12.30;99.90
26743;DHT22;14341;51.256;22.478;2023-04-01T12:41:27;14.30;99.90
26743;DHT22;14341;51.256;22.478;2023-04-01T12:44:45;15.30;6.10
26743;DHT22;14341;51.256;22.478;2023-04-01T12:48:13;15.70;1.00
26743;DHT22;14341;51.256;22.478;2023-04-01T12:51:53;15.80;1.00
26743;DHT22;14341;51.256;22.478;2023-04-01T12:55:35;15.60;1.00
26743;DHT22;14341;51.256;22.478;2023-04-01T12:59:14;15.80;1.00
26743;DHT22;14341;51.256;22.478;2023-04-01T13:02:31;16.10;1.00
26743;DHT22;14341;51.256;22.478;2023-04-01T13:09:37;17.00;99.90
26743;DHT22;14341;51.256;22.478;2023-04-01T13:16:24;16.30;1.00
26743;DHT22;14341;51.256;22.478;2023-04-01T13:19:35;15.60;1.00
26743;DHT22;14341;51.256;22.478;2023-04-01T13:22:52;15.40;1.00
26743;DHT22;14341;51.256;22.478;2023-04-01T13:26:07;15.00;1.00
26743;DHT22;14341;51.256;22.478;2023-04-01T13:29:18;14.70;1.00
26743;DHT22;14341;51.256;22.478;2023-04-01T13:32:31;14.50;1.00
26743;DHT22;14341;51.256;22.478;2023-04-01T13:35:45;14.20;1.00
26743;DHT22;14341;51.256;22.478;2023-04-01T13:39:17;13.80;20.20
26743;DHT22;14341;51.256;22.478;2023-04-01T13:42:26;13.50;77.50
26743;DHT22;14341;51.256;22.478;2023-04-01T13:45:41;12.80;99.90
26743;DHT22;14341;51.256;22.478;2023-04-01T13:49:03;12.40;99.90
26743;DHT22;14341;51.256;22.478;2023-04-01T13:52:41;12.10;99.90
26743;DHT22;14341;51.256;22.478;2023-04-01T13:55:54;11.90;99.90
26743;DHT22;14341;51.256;22.478;2023-04-01T13:59:16;11.50;99.90
26743;DHT22;14341;51.256;22.478;2023-04-01T14:02:47;11.20;99.90
26743;DHT22;14341;51.256;22.478;2023-04-01T14:06:09;10.90;99.90
26743;DHT22;14341;51.256;22.478;2023-04-01T14:09:40;10.70;99.90
26743;DHT22;14341;51.256;22.478;2023-04-01T14:12:53;10.60;99.90
26743;DHT22;14341;51.256;22.478;2023-04-01T14:16:11;10.60;99.90
26743;DHT22;14341;51.256;22.478;2023-04-01T14:19:25;10.60;99.90
26743;DHT22;14341;51.256;22.478;2023-04-01T14:22:39;10.60;99.90
26743;DHT22;14341;51.256;22.478;2023-04-01T14:26:02;10.50;99.90
26743;DHT22;14341;51.256;22.478;2023-04-01T14:29:18;10.70;99.90
26743;DHT22;14341;51.256;22.478;2023-04-01T14:32:32;11.10;99.90
26743;DHT22;14341;51.256;22.478;2023-04-01T14:35:38;11.20;99.90
26743;DHT22;14341;51.256;22.478;2023-04-01T14:38:59;11.50;99.90
26743;DHT22;14341;51.256;22.478;2023-04-01T14:42:23;11.60;99.90
26743;DHT22;14341;51.256;22.478;2023-04-01T14:45:54;12.00;99.90
26743;DHT22;14341;51.256;22.478;2023-04-01T14:49:05;12.10;99.90
26743;DHT22;14341;51.256;22.478;2023-04-01T14:52:23;11.90;99.90
26743;DHT22;14341;51.256;22.478;2023-04-01T14:55:33;11.70;99.90
26743;DHT22;14341;51.256;22.478;2023-04-01T14:58:45;11.50;99.90
26743;DHT22;14341;51.256;22.478;2023-04-01T15:01:54;11.40;99.90
26743;DHT22;14341;51.256;22.478;2023-04-01T15:05:06;11.40;99.90
26743;DHT22;14341;51.256;22.478;2023-04-01T15:08:20;11.30;99.90
26743;DHT22;14341;51.256;22.478;2023-04-01T15:11:33;11.30;99.90
26743;DHT22;14341;51.256;22.478;2023-04-01T15:14:58;11.20;99.90
26743;DHT22;14341;51.256;22.478;2023-04-01T15:18:09;11.10;99.90
26743;DHT22;14341;51.256;22.478;2023-04-01T15:21:21;11.10;99.90
26743;DHT22;14341;51.256;22.478;2023-04-01T15:24:41;11.00;99.90
26743;DHT22;14341;51.256;22.478;2023-04-01T15:27:50;11.00;99.90
26743;DHT22;14341;51.256;22.478;2023-04-01T15:30:57;11.00;99.90
26743;DHT22;14341;51.256;22.478;2023-04-01T15:34:21;10.90;99.90
26743;DHT22;14341;51.256;22.478;2023-04-01T15:37:34;10.70;99.90
26743;DHT22;14341;51.256;22.478;2023-04-01T15:40:44;10.60;99.90
26743;DHT22;14341;51.256;22.478;2023-04-01T15:43:52;10.40;99.90
26743;DHT22;14341;51.256;22.478;2023-04-01T15:46:58;10.30;99.90
26743;DHT22;14341;51.256;22.478;2023-04-01T15:53:53;10.00;99.90
26743;DHT22;14341;51.256;22.478;2023-04-01T15:57:15;10.00;99.90
26743;DHT22;14341;51.256;22.478;2023-04-01T16:00:26;9.80;99.90
26743;DHT22;14341;51.256;22.478;2023-04-01T16:03:38;9.80;99.90
26743;DHT22;14341;51.256;22.478;2023-04-01T16:07:04;9.70;99.90
26743;DHT22;14341;51.256;22.478;2023-04-01T16:10:38;9.70;99.90
26743;DHT22;14341;51.256;22.478;2023-04-01T16:14:05;9.60;99.90
26743;DHT22;14341;51.256;22.478;2023-04-01T16:17:24;9.70;99.90
26743;DHT22;14341;51.256;22.478;2023-04-01T16:20:43;9.50;99.90
26743;DHT22;14341;51.256;22.478;2023-04-01T16:23:50;9.50;99.90
26743;DHT22;14341;51.256;22.478;2023-04-01T16:27:00;9.50;99.90
26743;DHT22;14341;51.256;22.478;2023-04-01T16:30:23;9.50;99.90
26743;DHT22;14341;51.256;22.478;2023-04-01T16:33:38;9.50;99.90
26743;DHT22;14341;51.256;22.478;2023-04-01T16:36:47;9.50;99.90
26743;DHT22;14341;51.256;22.478;2023-04-01T16:40:00;9.50;99.90
26743;DHT22;14341;51.256;22.478;2023-04-01T16:43:11;9.50;99.90
26743;DHT22;14341;51.256;22.478;2023-04-01T16:46:28;9.40;99.90
26743;DHT22;14341;51.256;22.478;2023-04-01T16:49:37;9.40;99.90
26743;DHT22;14341;51.256;22.478;2023-04-01T16:52:57;9.30;99.90
26743;DHT22;14341;51.256;22.478;2023-04-01T16:56:08;9.30;99.90
26743;DHT22;14341;51.256;22.478;2023-04-01T16:59:19;9.20;99.90
26743;DHT22;14341;51.256;22.478;2023-04-01T17:02:27;9.10;99.90
26743;DHT22;14341;51.256;22.478;2023-04-01T17:05:42;9.10;99.90
26743;DHT22;14341;51.256;22.478;2023-04-01T17:09:07;9.10;99.90
26743;DHT22;14341;51.256;22.478;2023-04-01T17:12:17;9.10;99.90
26743;DHT22;14341;51.256;22.478;2023-04-01T17:15:28;9.00;99.90
26743;DHT22;14341;51.256;22.478;2023-04-01T17:18:40;8.90;99.90
26743;DHT22;14341;51.256;22.478;2023-04-01T17:21:58;8.90;99.90
26743;DHT22;14341;51.256;22.478;2023-04-01T17:25:17;8.90;99.90
26743;DHT22;14341;51.256;22.478;2023-04-01T17:28:34;8.80;99.90
26743;DHT22;14341;51.256;22.478;2023-04-01T17:31:46;8.80;99.90
26743;DHT22;14341;51.256;22.478;2023-04-01T17:34:56;8.80;99.90
26743;DHT22;14341;51.256;22.478;2023-04-01T17:38:17;8.80;99.90
26743;DHT22;14341;51.256;22.478;2023-04-01T17:41:31;8.70;99.90
26743;DHT22;14341;51.256;22.478;2023-04-01T17:44:54;8.70;99.90
26743;DHT22;14341;51.256;22.478;2023-04-01T17:48:08;8.70;99.90
26743;DHT22;14341;51.256;22.478;2023-04-01T17:51:24;8.70;99.90
26743;DHT22;14341;51.256;22.478;2023-04-01T17:54:38;8.70;99.90
26743;DHT22;14341;51.256;22.478;2023-04-01T17:57:48;8.70;99.90
26743;DHT22;14341;51.256;22.478;2023-04-01T18:01:09;8.70;99.90
26743;DHT22;14341;51.256;22.478;2023-04-01T18:04:39;8.70;99.90
26743;DHT22;14341;51.256;22.478;2023-04-01T18:08:01;8.60;99.90
26743;DHT22;14341;51.256;22.478;2023-04-01T18:11:15;8.70;99.90
26743;DHT22;14341;51.256;22.478;2023-04-01T18:18:02;8.70;99.90
26743;DHT22;14341;51.256;22.478;2023-04-01T18:21:14;8.60;99.90
26743;DHT22;14341;51.256;22.478;2023-04-01T18:24:26;8.60;99.90
26743;DHT22;14341;51.256;22.478;2023-04-01T18:27:37;8.70;99.90
26743;DHT22;14341;51.256;22.478;2023-04-01T18:30:41;8.70;99.90
26743;DHT22;14341;51.256;22.478;2023-04-01T18:33:56;8.70;99.90
26743;DHT22;14341;51.256;22.478;2023-04-01T18:37:15;8.70;99.90
26743;DHT22;14341;51.256;22.478;2023-04-01T18:40:23;8.70;99.90
26743;DHT22;14341;51.256;22.478;2023-04-01T18:43:33;8.70;99.90
26743;DHT22;14341;51.256;22.478;2023-04-01T18:46:47;8.70;99.90
26743;DHT22;14341;51.256;22.478;2023-04-01T18:49:58;8.70;99.90
26743;DHT22;14341;51.256;22.478;2023-04-01T18:53:13;8.60;99.90
26743;DHT22;14341;51.256;22.478;2023-04-01T18:56:25;8.70;99.90
26743;DHT22;14341;51.256;22.478;2023-04-01T18:59:36;8.70;99.90
26743;DHT22;14341;51.256;22.478;2023-04-01T19:02:47;8.70;99.90
26743;DHT22;14341;51.256;22.478;2023-04-01T19:05:53;8.60;99.90
26743;DHT22;14341;51.256;22.478;2023-04-01T19:09:15;8.70;99.90
26743;DHT22;14341;51.256;22.478;2023-04-01T19:12:33;8.70;99.90
26743;DHT22;14341;51.256;22.478;2023-04-01T19:15:44;8.60;99.90
26743;DHT22;14341;51.256;22.478;2023-04-01T19:19:01;8.70;99.90
26743;DHT22;14341;51.256;22.478;2023-04-01T19:22:22;8.60;99.90
26743;DHT22;14341;51.256;22.478;2023-04-01T19:25:37;8.60;99.90
26743;DHT22;14341;51.256;22.478;2023-04-01T19:28:49;8.70;99.90
26743;DHT22;14341;51.256;22.478;2023-04-01T19:32:08;8.70;99.90
26743;DHT22;14341;51.256;22.478;2023-04-01T19:35:26;8.70;99.90
26743;DHT22;14341;51.256;22.478;2023-04-01T19:38:32;8.70;99.90
26743;DHT22;14341;51.256;22.478;2023-04-01T19:41:46;8.70;99.90
26743;DHT22;14341;51.256;22.478;2023-04-01T19:45:06;8.80;99.90
26743;DHT22;14341;51.256;22.478;2023-04-01T19:48:30;8.70;99.90
26743;DHT22;14341;51.256;22.478;2023-04-01T19:51:46;8.70;99.90
26743;DHT22;14341;51.256;22.478;2023-04-01T19:54:51;8.80;99.90
26743;DHT22;14341;51.256;22.478;2023-04-01T19:58:04;8.70;99.90
26743;DHT22;14341;51.256;22.478;2023-04-01T20:01:14;8.80;99.90
26743;DHT22;14341;51.256;22.478;2023-04-01T20:04:25;8.80;99.90
26743;DHT22;14341;51.256;22.478;2023-04-01T20:07:34;8.80;99.90
26743;DHT22;14341;51.256;22.478;2023-04-01T20:10:47;8.70;99.90
26743;DHT22;14341;51.256;22.478;2023-04-01T20:14:07;8.70;99.90
26743;DHT22;14341;51.256;22.478;2023-04-01T20:17:19;8.70;99.90
26743;DHT22;14341;51.256;22.478;2023-04-01T20:20:25;8.80;99.90
26743;DHT22;14341;51.256;22.478;2023-04-01T20:23:42;8.70;99.90
26743;DHT22;14341;51.256;22.478;2023-04-01T20:26:50;8.70;99.90
26743;DHT22;14341;51.256;22.478;2023-04-01T20:30:19;8.60;99.90
26743;DHT22;14341;51.256;22.478;2023-04-01T20:33:53;8.60;99.90
26743;DHT22;14341;51.256;22.478;2023-04-01T20:37:16;8.60;99.90
26743;DHT22;14341;51.256;22.478;2023-04-01T20:40:29;8.60;99.90
26743;DHT22;14341;51.256;22.478;2023-04-01T20:43:46;8.50;99.90
26743;DHT22;14341;51.256;22.478;2023-04-01T20:46:58;8.50;99.90
26743;DHT22;14341;51.256;22.478;2023-04-01T20:50:15;8.50;99.90
26743;DHT22;14341;51.256;22.478;2023-04-01T20:53:28;8.50;99.90
26743;DHT22;14341;51.256;22.478;2023-04-01T20:56:43;8.50;99.90
26743;DHT22;14341;51.256;22.478;2023-04-01T21:00:11;8.40;99.90
26743;DHT22;14341;51.256;22.478;2023-04-01T21:03:30;8.40;99.90
26743;DHT22;14341;51.256;22.478;2023-04-01T21:06:48;8.40;99.90
26743;DHT22;14341;51.256;22.478;2023-04-01T21:10:06;8.50;99.90
26743;DHT22;14341;51.256;22.478;2023-04-01T21:13:22;8.50;99.90
26743;DHT22;14341;51.256;22.478;2023-04-01T21:16:37;8.60;99.90
26743;DHT22;14341;51.256;22.478;2023-04-01T21:19:53;8.50;99.90
26743;DHT22;14341;51.256;22.478;2023-04-01T21:23:14;8.60;99.90
26743;DHT22;14341;51.256;22.478;2023-04-01T21:26:36;8.50;99.90
26743;DHT22;14341;51.256;22.478;2023-04-01T21:29:53;8.50;99.90
26743;DHT22;14341;51.256;22.478;2023-04-01T21:33:07;8.50;99.90
26743;DHT22;14341;51.256;22.478;2023-04-01T21:36:24;8.50;99.90
26743;DHT22;14341;51.256;22.478;2023-04-01T21:39:47;8.50;99.90
26743;DHT22;14341;51.256;22.478;2023-04-01T21:43:00;8.60;99.90
26743;DHT22;14341;51.256;22.478;2023-04-01T21:49:55;8.50;99.90